Time;durP1;ratioP1;P1;durP2;ratioP2;P2;SDS_P1;SDS_P2;PMS_P1;PMS_P2;Temp;Humidity;BMP_temperature;BMP_pressure;BME280_temperature;BME280_humidity;BME280_pressure;Samples;Min_cycle;Max_cycle;Signal;HPM_P1;HPM_P2
2022/12/10 00:00:52;;;;;;;;;;;;;;;-2.38;100.00;100792.38;5060139;28;19928;-74
2022/12/10 00:03:17;;;;;;;;;;;;;;;-2.37;100.00;100793.25;5060965;28;19959;-74
2022/12/10 00:05:42;;;;;;;;;;;;;;;-2.39;100.00;100784.72;5059839;28;19916;-75
2022/12/10 00:08:07;;;;;;;;;;;;;;;-2.41;100.00;100789.13;5044398;28;20355;-75
2022/12/10 00:10:33;;;;;;;;;;;;;;;-2.45;100.00;100785.81;5060902;28;19916;-74
2022/12/10 00:12:58;;;;;;;;;;;;;;;-2.43;100.00;100788.34;5060000;28;19917;-74
2022/12/10 00:15:23;;;;;;;;;;;;;;;-2.41;100.00;100789.13;5060791;28;19916;-76
2022/12/10 00:17:48;;;;;;;;;;;;;;;-2.40;100.00;100785.63;5059090;28;20007;-75
2022/12/10 00:20:14;;;;;;;;;;;;;;;-2.41;100.00;100791.72;5060918;28;19955;-74
2022/12/10 00:22:39;;;;;;;;;;;;;;;-2.39;100.00;100789.91;5059469;28;19931;-75
2022/12/10 00:25:04;;;;;;;;;;;;;;;-2.39;100.00;100789.91;5059615;28;19916;-74
2022/12/10 00:27:30;;;;;;;;;;;;;;;-2.42;100.00;100795.19;5059448;28;20318;-71
2022/12/10 00:29:55;;;;;;;;;;;;;;;-2.43;100.00;100798.69;5059112;28;19999;-73
2022/12/10 00:32:20;;;;;;;;;;;;;;;-2.43;100.00;100803.84;5058899;28;19978;-75
2022/12/10 00:34:46;;;;;;;;;;;;;;;-2.43;100.00;100807.28;5066742;28;20007;-73
2022/12/10 00:37:11;;;;;;;;;;;;;;;-2.46;100.00;100802.25;5059962;28;19920;-76
2022/12/10 00:39:36;;;;;;;;;;;;;;;-2.44;100.00;100808.16;5059973;28;19924;-75
2022/12/10 00:42:02;;;;;;;;;;;;;;;-2.41;100.00;100805.47;5058900;28;19925;-76
2022/12/10 00:44:27;;;;;;;;;;;;;;;-2.44;100.00;100797.00;5059392;28;20134;-74
2022/12/10 00:46:52;;;;;;;;;;;;;;;-2.50;100.00;100790.38;5041859;28;19917;-74
2022/12/10 00:49:18;;;;;;;;;;;;;;;-2.45;100.00;100790.16;5048800;28;20003;-75
2022/12/10 00:51:43;;;;;;;;;;;;;;;-2.47;100.00;100805.72;5060296;28;19917;-74
2022/12/10 00:54:08;;;;;;;;;;;;;;;-2.54;100.00;100792.25;5061390;28;19916;-73
2022/12/10 00:56:34;;;;;;;;;;;;;;;-2.45;100.00;100801.34;5058378;28;19920;-75
2022/12/10 00:58:59;;;;;;;;;;;;;;;-2.44;100.00;100797.00;5058781;28;19939;-73
2022/12/10 01:01:26;;;;;;;;;;;;;;;-2.47;100.00;100797.97;5074327;28;19909;-74
2022/12/10 01:03:54;;;;;;;;;;;;;;;-2.53;100.00;100799.06;5059625;28;20265;-75
2022/12/10 01:06:21;;;;;;;;;;;;;;;-2.57;100.00;100804.44;5059364;28;20283;-75
2022/12/10 01:08:47;;;;;;;;;;;;;;;-2.55;100.00;100795.75;5059899;28;19927;-76
2022/12/10 01:11:13;;;;;;;;;;;;;;;-2.57;100.00;100801.84;5060272;28;19995;-75
2022/12/10 01:13:39;;;;;;;;;;;;;;;-2.54;100.00;100801.75;5058693;28;20403;-71
2022/12/10 01:16:05;;;;;;;;;;;;;;;-2.55;100.00;100795.75;5058062;28;19908;-72
2022/12/10 01:18:30;;;;;;;;;;;;;;;-2.53;100.00;100793.91;5059534;28;19958;-72
2022/12/10 01:21:00;;;;;;;;;;;;;;;-2.47;100.00;100794.56;5059649;28;19944;-72
2022/12/10 01:23:25;;;;;;;;;;;;;;;-2.47;100.00;100803.16;5057225;28;19970;-73
2022/12/10 01:25:50;;;;;;;;;;;;;;;-2.46;100.00;100809.16;5058665;28;19948;-74
2022/12/10 01:28:15;;;;;;;;;;;;;;;-2.51;100.00;100807.59;5057601;28;19912;-72
2022/12/10 01:30:41;;;;;;;;;;;;;;;-2.54;100.00;100802.56;5057606;28;19916;-73
2022/12/10 01:33:06;;;;;;;;;;;;;;;-2.62;100.00;100814.97;5059475;28;20019;-73
2022/12/10 01:35:31;;;;;;;;;;;;;;;-2.64;100.00;100805.63;5041000;28;19921;-73
2022/12/10 01:37:56;;;;;;;;;;;;;;;-2.65;100.00;100809.13;5058049;28;20250;-73
2022/12/10 01:40:22;;;;;;;;;;;;;;;-2.62;100.00;100814.97;5059040;28;19920;-73
2022/12/10 01:42:48;;;;;;;;;;;;;;;-2.60;100.00;100820.09;5040347;28;19992;-73
2022/12/10 01:45:14;;;;;;;;;;;;;;;-2.57;100.00;100823.41;5058141;28;20360;-73
2022/12/10 01:47:39;;;;;;;;;;;;;;;-2.60;100.00;100815.75;5064498;28;20011;-75
2022/12/10 01:50:06;;;;;;;;;;;;;;;-2.59;100.00;100824.34;5059794;28;20382;-73
2022/12/10 01:52:32;;;;;;;;;;;;;;;-2.66;100.00;100818.59;5059526;28;19921;-75
2022/12/10 01:54:57;;;;;;;;;;;;;;;-2.68;100.00;100815.25;5056283;28;19966;-73
2022/12/10 01:57:24;;;;;;;;;;;;;;;-2.73;100.00;100807.69;5058539;28;19912;-74
2022/12/10 01:59:57;;;;;;;;;;;;;;;-2.71;100.00;100805.06;5058215;28;19912;-78
2022/12/10 02:02:22;;;;;;;;;;;;;;;-2.70;100.00;100812.75;5064440;28;19983;-78
2022/12/10 02:04:48;;;;;;;;;;;;;;;-2.65;100.00;100811.72;5057963;28;19955;-73
2022/12/10 02:07:23;;;;;;;;;;;;;;;-2.61;100.00;100816.69;5058096;28;19919;-73
2022/12/10 02:09:54;;;;;;;;;;;;;;;-2.63;100.00;100818.50;5066674;28;20011;-76
2022/12/10 02:12:28;;;;;;;;;;;;;;;-2.60;100.00;100817.50;5058084;28;20478;-73
2022/12/10 02:15:00;;;;;;;;;;;;;;;-2.63;100.00;100818.50;5057981;28;19913;-73
2022/12/10 02:17:25;;;;;;;;;;;;;;;-2.65;100.00;100816.88;5062745;28;19920;-74
2022/12/10 02:19:56;;;;;;;;;;;;;;;-2.72;100.00;100813.72;5061680;28;19912;-74
2022/12/10 02:22:23;;;;;;;;;;;;;;;-2.68;100.00;100812.66;5062148;28;19964;-73
2022/12/10 02:24:50;;;;;;;;;;;;;;;-2.70;100.00;100811.88;5061567;28;20380;-74
2022/12/10 02:27:19;;;;;;;;;;;;;;;-2.69;100.00;100814.41;5061354;28;20482;-71
2022/12/10 02:29:46;;;;;;;;;;;;;;;-2.62;100.00;100812.41;5069417;28;20364;-73
2022/12/10 02:32:21;;;;;;;;;;;;;;;-2.55;100.00;100815.56;5060982;28;19913;-77
2022/12/10 02:34:49;;;;;;;;;;;;;;;-2.54;100.00;100812.91;5069870;28;19923;-74
2022/12/10 02:37:20;;;;;;;;;;;;;;;-2.57;100.00;100818.22;5061429;28;20024;-73
2022/12/10 02:39:49;;;;;;;;;;;;;;;-2.55;100.00;100820.72;5061912;28;19920;-74
2022/12/10 02:42:15;;;;;;;;;;;;;;;-2.61;100.00;100806.34;5068051;28;19952;-73
2022/12/10 02:44:42;;;;;;;;;;;;;;;-2.60;100.00;100814.94;5061957;28;20383;-72
2022/12/10 02:47:08;;;;;;;;;;;;;;;-2.60;100.00;100818.34;5060619;28;19928;-76
2022/12/10 02:49:34;;;;;;;;;;;;;;;-2.59;100.00;100820.03;5061265;28;19912;-74
2022/12/10 02:52:06;;;;;;;;;;;;;;;-2.53;100.00;100819.75;5061626;28;20708;-73
2022/12/10 02:54:37;;;;;;;;;;;;;;;-2.53;100.00;100818.91;5062457;28;19919;-72
2022/12/10 02:57:14;;;;;;;;;;;;;;;-2.50;100.00;100818.78;5060321;28;19912;-72
2022/12/10 02:59:47;;;;;;;;;;;;;;;-2.56;100.00;100825.06;5059802;28;19912;-73
2022/12/10 03:02:15;;;;;;;;;;;;;;;-2.67;100.00;100827.28;5062157;28;19916;-76
2022/12/10 03:04:59;;;;;;;;;;;;;;;-2.75;100.00;100824.16;5069129;28;19916;-73
2022/12/10 03:07:50;;;;;;;;;;;;;;;-2.83;100.00;100823.66;5059672;28;19970;-77
2022/12/10 03:10:15;;;;;;;;;;;;;;;-2.88;100.00;100815.28;5058439;28;19951;-73
2022/12/10 03:12:47;;;;;;;;;;;;;;;-2.89;100.00;100822.19;5061112;28;19979;-76
2022/12/10 03:15:14;;;;;;;;;;;;;;;-2.88;100.00;100829.00;5060629;28;20367;-75
2022/12/10 03:17:41;;;;;;;;;;;;;;;-2.86;100.00;100823.78;5066866;28;19995;-72
2022/12/10 03:20:09;;;;;;;;;;;;;;;-2.83;100.00;100823.66;5062418;28;19909;-75
2022/12/10 03:22:35;;;;;;;;;;;;;;;-2.73;100.00;100822.38;5062099;28;19958;-73
2022/12/10 03:25:01;;;;;;;;;;;;;;;-2.70;100.00;100820.50;5059588;28;19953;-74
2022/12/10 03:27:27;;;;;;;;;;;;;;;-2.64;100.00;100832.28;5058708;28;20011;-74
2022/12/10 03:29:54;;;;;;;;;;;;;;;-2.52;100.00;100847.28;5058574;28;20002;-76
2022/12/10 03:32:22;;;;;;;;;;;;;;;-2.58;100.00;100837.22;5062114;28;19909;-71
2022/12/10 03:34:48;;;;;;;;;;;;;;;-2.73;100.00;100832.69;5075164;28;19912;-73
2022/12/10 03:37:14;;;;;;;;;;;;;;;-2.64;100.00;100834.03;5059210;28;19970;-71
2022/12/10 03:39:41;;;;;;;;;;;;;;;-2.69;100.00;100832.50;5060797;28;19912;-73
2022/12/10 03:42:06;;;;;;;;;;;;;;;-2.75;100.00;100824.16;5061565;28;20011;-74
2022/12/10 03:44:33;;;;;;;;;;;;;;;-2.72;100.00;100824.06;5060167;28;20042;-75
2022/12/10 03:46:58;;;;;;;;;;;;;;;-2.78;100.00;100826.91;5060482;28;19942;-73
2022/12/10 03:49:24;;;;;;;;;;;;;;;-2.77;100.00;100829.38;5061489;28;19916;-73
2022/12/10 03:51:49;;;;;;;;;;;;;;;-2.71;100.00;100830.88;5061061;28;19912;-74
2022/12/10 03:54:14;;;;;;;;;;;;;;;-2.75;100.00;100822.41;5058149;28;19912;-73
2022/12/10 03:56:40;;;;;;;;;;;;;;;-2.68;100.00;100828.16;5061169;28;19913;-72
2022/12/10 03:59:05;;;;;;;;;;;;;;;-2.66;100.00;100834.09;5059736;28;20404;-75
2022/12/10 04:01:30;;;;;;;;;;;;;;;-2.69;100.00;100826.50;5059808;28;20376;-73
2022/12/10 04:03:55;;;;;;;;;;;;;;;-2.71;100.00;100836.88;5060275;28;20451;-74
2022/12/10 04:06:21;;;;;;;;;;;;;;;-2.72;100.00;100835.22;5060230;28;19959;-73
2022/12/10 04:08:46;;;;;;;;;;;;;;;-2.76;100.00;100828.50;5059655;28;19923;-72
2022/12/10 04:11:12;;;;;;;;;;;;;;;-2.77;100.00;100826.81;5059867;28;19912;-73
2022/12/10 04:16:29;;;;;;;;;;;;;;;-2.79;100.00;100832.94;5059212;28;19969;-73
2022/12/10 04:18:54;;;;;;;;;;;;;;;-2.76;100.00;100838.00;5044213;28;19965;-74
2022/12/10 04:26:53;;;;;;;;;;;;;;;-2.87;100.00;100829.84;5060411;28;20020;-74
2022/12/10 04:29:23;;;;;;;;;;;;;;;-2.85;100.00;100839.22;5044725;28;19978;-75
2022/12/10 04:31:48;;;;;;;;;;;;;;;-2.85;100.00;100834.06;5058663;28;19912;-74
2022/12/10 04:34:14;;;;;;;;;;;;;;;-2.88;100.00;100825.59;5058701;28;19920;-73
2022/12/10 04:36:39;;;;;;;;;;;;;;;-2.86;100.00;100831.53;5060174;28;19917;-72
2022/12/10 04:39:04;;;;;;;;;;;;;;;-2.96;100.00;100816.44;5057936;28;20285;-74
2022/12/10 04:41:29;;;;;;;;;;;;;;;-2.92;100.00;100827.47;5059266;28;19921;-75
2022/12/10 04:43:55;;;;;;;;;;;;;;;-2.88;100.00;100831.59;5057889;28;19928;-73
2022/12/10 04:46:20;;;;;;;;;;;;;;;-2.89;100.00;100837.69;5059654;28;20391;-75
2022/12/10 04:48:45;;;;;;;;;;;;;;;-2.99;100.00;100837.22;5059173;28;19923;-74
2022/12/10 04:51:11;;;;;;;;;;;;;;;-3.00;100.00;100825.22;5059112;28;20395;-74
2022/12/10 04:53:36;;;;;;;;;;;;;;;-2.95;100.00;100833.59;5059019;28;20011;-75
2022/12/10 04:56:04;;;;;;;;;;;;;;;-3.01;100.00;100839.00;5065505;28;19955;-75
2022/12/10 04:58:30;;;;;;;;;;;;;;;-3.06;100.00;100835.78;5057641;28;20342;-73
2022/12/10 05:01:06;;;;;;;;;;;;;;;-3.14;100.00;100828.34;5043290;28;19920;-73
2022/12/10 05:03:31;;;;;;;;;;;;;;;-3.15;100.00;100838.75;5059589;28;19939;-72
2022/12/10 05:06:04;;;;;;;;;;;;;;;-3.17;100.00;100837.97;5059639;28;19908;-73
2022/12/10 05:08:30;;;;;;;;;;;;;;;-3.18;100.00;100841.44;5058616;28;20482;-73
2022/12/10 05:10:59;;;;;;;;;;;;;;;-3.17;100.00;100849.13;5057062;28;20020;-72
2022/12/10 05:13:24;;;;;;;;;;;;;;;-3.15;100.00;100846.50;5061187;28;19913;-73
2022/12/10 05:15:50;;;;;;;;;;;;;;;-3.16;100.00;100850.84;5059879;28;19912;-72
2022/12/10 05:18:15;;;;;;;;;;;;;;;-3.18;100.00;100846.59;5057025;28;19916;-74
2022/12/10 05:20:40;;;;;;;;;;;;;;;-3.22;100.00;100850.22;5059592;28;19924;-73
2022/12/10 05:25:57;;;;;;;;;;;;;;;-3.22;100.00;100845.91;5057068;28;19970;-73
2022/12/10 05:28:22;;;;;;;;;;;;;;;-3.21;100.00;100854.50;5058975;28;20248;-75
2022/12/10 05:30:48;;;;;;;;;;;;;;;-3.18;100.00;100847.47;5048723;28;19999;-73
2022/12/10 05:33:13;;;;;;;;;;;;;;;-3.16;100.00;100847.38;5056747;28;19917;-72
2022/12/10 05:35:38;;;;;;;;;;;;;;;-3.08;100.00;100844.50;5058853;28;19931;-72
2022/12/10 05:38:05;;;;;;;;;;;;;;;-3.10;100.00;100844.56;5058659;28;19916;-72
2022/12/10 05:40:30;;;;;;;;;;;;;;;-3.03;100.00;100845.97;5057480;28;20388;-78
2022/12/10 05:42:56;;;;;;;;;;;;;;;-2.98;100.00;100853.56;5059396;28;19995;-73
2022/12/10 05:45:21;;;;;;;;;;;;;;;-2.97;100.00;100856.06;5056630;28;20063;-74
2022/12/10 05:47:46;;;;;;;;;;;;;;;-2.90;100.00;100856.66;5050087;28;19920;-73
2022/12/10 05:50:11;;;;;;;;;;;;;;;-2.90;100.00;100856.66;5056689;28;19916;-73
2022/12/10 05:52:37;;;;;;;;;;;;;;;-2.88;100.00;100856.59;5058881;28;19923;-77
2022/12/10 05:55:02;;;;;;;;;;;;;;;-2.83;100.00;100852.06;5058394;28;19912;-74
2022/12/10 05:57:28;;;;;;;;;;;;;;;-2.87;100.00;100861.69;5057701;28;19920;-73
2022/12/10 05:59:53;;;;;;;;;;;;;;;-2.79;100.00;100869.13;5057443;28;20295;-75
2022/12/10 06:02:18;;;;;;;;;;;;;;;-2.75;100.00;100871.50;5056298;28;19920;-75
2022/12/10 06:04:44;;;;;;;;;;;;;;;-2.72;100.00;100865.41;5056498;28;19955;-74
2022/12/10 06:07:09;;;;;;;;;;;;;;;-2.70;100.00;100871.31;5056944;28;19924;-74
2022/12/10 06:09:34;;;;;;;;;;;;;;;-2.70;100.00;100874.75;5057696;28;19916;-77
2022/12/10 06:11:59;;;;;;;;;;;;;;;-2.69;100.00;100881.59;5063886;28;19970;-74
2022/12/10 06:14:25;;;;;;;;;;;;;;;-2.64;100.00;100878.81;5058098;28;19922;-73
2022/12/10 06:16:50;;;;;;;;;;;;;;;-2.67;100.00;100876.38;5055286;28;20122;-74
2022/12/10 06:19:16;;;;;;;;;;;;;;;-2.67;100.00;100868.59;5056139;28;19913;-73
2022/12/10 06:21:41;;;;;;;;;;;;;;;-2.77;100.00;100875.88;5039496;28;19916;-73
2022/12/10 06:24:06;;;;;;;;;;;;;;;-2.72;100.00;100883.47;5040036;28;20777;-75
2022/12/10 06:26:32;;;;;;;;;;;;;;;-2.71;100.00;100893.72;5056905;28;19916;-72
2022/12/10 06:28:57;;;;;;;;;;;;;;;-2.77;100.00;100898.31;5039234;28;19916;-73
2022/12/10 06:31:22;;;;;;;;;;;;;;;-2.83;100.00;100894.25;5055647;28;19916;-74
2022/12/10 06:33:48;;;;;;;;;;;;;;;-2.85;100.00;100895.19;5062837;28;19916;-74
2022/12/10 06:36:14;;;;;;;;;;;;;;;-2.80;100.00;100913.94;5057475;28;19916;-74
2022/12/10 06:38:40;;;;;;;;;;;;;;;-2.68;100.00;100921.16;5040460;28;19931;-75
2022/12/10 06:41:07;;;;;;;;;;;;;;;-2.71;100.00;100926.47;5056428;28;19916;-72
2022/12/10 06:43:32;;;;;;;;;;;;;;;-2.72;100.00;100932.56;5055318;28;19916;-77
2022/12/10 06:45:57;;;;;;;;;;;;;;;-2.66;100.00;100937.44;5055827;28;19919;-75
2022/12/10 06:48:23;;;;;;;;;;;;;;;-2.73;100.00;100934.28;5038203;28;19916;-76
2022/12/10 06:50:48;;;;;;;;;;;;;;;-2.81;100.00;100932.91;5060976;28;19917;-73
2022/12/10 06:53:13;;;;;;;;;;;;;;;-2.74;100.00;100940.38;5057138;28;19951;-73
2022/12/10 06:55:38;;;;;;;;;;;;;;;-2.68;100.00;100939.25;5055328;28;19916;-70
2022/12/10 06:58:04;;;;;;;;;;;;;;;-2.58;100.00;100939.72;5057058;28;19912;-74
2022/12/10 07:00:29;;;;;;;;;;;;;;;-2.47;100.00;100941.88;5054891;28;19923;-72
2022/12/10 07:02:54;;;;;;;;;;;;;;;-2.56;100.00;100943.94;5055870;28;20295;-71
2022/12/10 07:05:20;;;;;;;;;;;;;;;-2.65;100.00;100933.16;5060435;28;19991;-75
2022/12/10 07:07:45;;;;;;;;;;;;;;;-2.55;100.00;100944.75;5057853;28;19920;-74
2022/12/10 07:10:10;;;;;;;;;;;;;;;-2.49;100.00;100950.50;5059862;28;19916;-72
2022/12/10 07:12:36;;;;;;;;;;;;;;;-2.53;100.00;100956.72;5042304;28;19920;-73
2022/12/10 07:15:01;;;;;;;;;;;;;;;-2.57;100.00;100952.59;5057811;28;19932;-72
2022/12/10 07:17:26;;;;;;;;;;;;;;;-2.60;100.00;100957.88;5057920;28;19916;-74
2022/12/10 07:19:51;;;;;;;;;;;;;;;-2.57;100.00;100957.78;5063744;28;19920;-73
2022/12/10 07:22:17;;;;;;;;;;;;;;;-2.56;100.00;100974.94;5046484;28;19924;-72
2022/12/10 07:24:43;;;;;;;;;;;;;;;-2.65;100.00;100969.31;5055071;28;19931;-72
2022/12/10 07:27:08;;;;;;;;;;;;;;;-2.66;100.00;100968.47;5056427;28;19912;-72
2022/12/10 07:29:34;;;;;;;;;;;;;;;-2.72;100.00;100972.16;5057182;28;19916;-73
2022/12/10 07:31:59;;;;;;;;;;;;;;;-2.78;100.00;100962.06;5056069;28;19912;-78
2022/12/10 07:34:24;;;;;;;;;;;;;;;-2.90;100.00;100960.81;5063530;28;19962;-73
2022/12/10 07:36:49;;;;;;;;;;;;;;;-2.82;100.00;100978.56;5056949;28;20345;-73
2022/12/10 07:39:17;;;;;;;;;;;;;;;-2.96;100.00;100966.22;5056281;28;19924;-77
2022/12/10 07:41:54;;;;;;;;;;;;;;;-2.92;100.00;100962.63;5040621;28;19923;-73
2022/12/10 07:44:21;;;;;;;;;;;;;;;-2.82;100.00;100970.00;5046654;28;19931;-74
2022/12/10 07:46:47;;;;;;;;;;;;;;;-2.85;100.00;100973.53;5052876;28;19916;-73
2022/12/10 07:49:12;;;;;;;;;;;;;;;-2.87;100.00;100975.34;5056469;28;19923;-75
2022/12/10 07:51:37;;;;;;;;;;;;;;;-2.90;100.00;100973.72;5052748;28;19970;-76
2022/12/10 07:54:03;;;;;;;;;;;;;;;-2.95;100.00;100982.53;5053514;28;19967;-75
2022/12/10 07:56:28;;;;;;;;;;;;;;;-2.87;100.00;100974.47;5059035;28;19916;-75
2022/12/10 07:58:53;;;;;;;;;;;;;;;-2.96;100.00;100976.53;5054091;28;19986;-75
2022/12/10 08:01:23;;;;;;;;;;;;;;;-2.93;100.00;100979.00;5053681;28;19920;-75
2022/12/10 08:03:49;;;;;;;;;;;;;;;-2.92;100.00;100983.28;5051766;28;20300;-78
2022/12/10 08:06:15;;;;;;;;;;;;;;;-2.96;100.00;100988.59;5038490;28;19920;-75
2022/12/10 08:08:42;;;;;;;;;;;;;;;-2.94;100.00;100987.66;5069676;28;19919;-75
2022/12/10 08:11:07;;;;;;;;;;;;;;;-2.85;100.00;100990.75;5051535;28;19969;-76
2022/12/10 08:13:33;;;;;;;;;;;;;;;-3.01;100.00;100993.94;5056889;28;19920;-78
2022/12/10 08:16:06;;;;;;;;;;;;;;;-2.97;100.00;101000.69;5054390;28;20002;-76
2022/12/10 08:18:32;;;;;;;;;;;;;;;-3.03;100.00;101010.41;5056790;28;19921;-73
2022/12/10 08:20:57;;;;;;;;;;;;;;;-3.08;100.00;101000.25;5057042;28;19921;-73
2022/12/10 08:23:22;;;;;;;;;;;;;;;-3.10;100.00;100996.88;5041731;28;19912;-78
2022/12/10 08:25:48;;;;;;;;;;;;;;;-3.04;100.00;101003.56;5042125;28;19917;-74
2022/12/10 08:28:13;;;;;;;;;;;;;;;-3.06;100.00;101002.78;5057662;28;19915;-77
2022/12/10 08:30:38;;;;;;;;;;;;;;;-3.04;100.00;101009.56;5055173;28;19925;-73
2022/12/10 08:33:04;;;;;;;;;;;;;;;-2.92;100.00;101016.84;5057917;28;20291;-78
2022/12/10 08:35:29;;;;;;;;;;;;;;;-2.88;100.00;101014.13;5056654;28;20444;-76
2022/12/10 08:37:54;;;;;;;;;;;;;;;-2.90;100.00;101021.94;5057113;28;19946;-76
2022/12/10 08:40:20;;;;;;;;;;;;;;;-2.75;100.00;101023.91;5042193;28;20296;-74
2022/12/10 08:42:45;;;;;;;;;;;;;;;-2.75;100.00;101034.25;5057335;28;19916;-74
2022/12/10 08:45:10;;;;;;;;;;;;;;;-2.71;100.00;101037.56;5060571;28;19920;-73
2022/12/10 08:47:35;;;;;;;;;;;;;;;-2.58;100.00;101049.09;5042450;28;19935;-73
2022/12/10 08:50:01;;;;;;;;;;;;;;;-2.32;100.00;101058.38;5041251;28;19947;-72
2022/12/10 08:52:28;;;;;;;;;;;;;;;-2.51;100.00;101060.03;5056964;28;20318;-72
2022/12/10 08:54:54;;;;;;;;;;;;;;;-2.62;100.00;101047.53;5040976;28;20731;-74
2022/12/10 08:57:19;;;;;;;;;;;;;;;-2.54;100.00;101055.00;5056577;28;19927;-77
2022/12/10 08:59:44;;;;;;;;;;;;;;;-2.75;100.00;101047.16;5054598;28;19948;-73
2022/12/10 09:02:10;;;;;;;;;;;;;;;-2.73;100.00;101052.28;5056584;28;19924;-75
2022/12/10 09:04:35;;;;;;;;;;;;;;;-2.75;100.00;101048.91;5054379;28;20119;-77
2022/12/10 09:07:01;;;;;;;;;;;;;;;-2.68;100.00;101052.94;5054138;28;19931;-75
2022/12/10 09:09:27;;;;;;;;;;;;;;;-2.74;100.00;101042.88;5053612;28;19916;-76
2022/12/10 09:11:52;;;;;;;;;;;;;;;-2.69;100.00;101049.50;5053537;28;19966;-75
2022/12/10 09:14:17;;;;;;;;;;;;;;;-2.58;100.00;101064.59;5054453;28;20462;-74
2022/12/10 09:16:42;;;;;;;;;;;;;;;-2.50;100.00;101077.22;5056284;28;19908;-78
2022/12/10 09:19:08;;;;;;;;;;;;;;;-2.25;100.00;101084.81;5054989;28;20399;-75
2022/12/10 09:21:33;;;;;;;;;;;;;;;-2.30;100.00;101081.59;5055776;28;19914;-77
2022/12/10 09:23:59;;;;;;;;;;;;;;;-2.23;100.00;101087.38;5053636;28;19934;-75
2022/12/10 09:26:25;;;;;;;;;;;;;;;-2.08;100.00;101092.75;5053006;28;19939;-73
2022/12/10 09:28:50;;;;;;;;;;;;;;;-2.37;100.00;101075.84;5069129;28;19927;-76
2022/12/10 09:31:16;;;;;;;;;;;;;;;-2.40;100.00;101069.94;5055269;28;19919;-74
2022/12/10 09:33:42;;;;;;;;;;;;;;;-2.32;100.00;101075.66;5062218;28;19917;-74
2022/12/10 09:36:07;;;;;;;;;;;;;;;-2.38;100.00;101068.97;5056081;28;19916;-75
2022/12/10 09:38:33;;;;;;;;;;;;;;;-2.40;100.00;101068.19;5052796;28;19928;-74
2022/12/10 09:41:14;;;;;;;;;;;;;;;-2.33;100.00;101067.06;5054116;28;19952;-77
2022/12/10 09:43:39;;;;;;;;;;;;;;;-2.11;100.00;101079.94;5051569;28;19912;-75
2022/12/10 09:46:10;;;;;;;;;;;;;;;-2.07;100.00;101073.75;5056136;28;19913;-74
2022/12/10 09:48:51;;;;;;;;;;;;;;;-2.20;100.00;101062.22;5058287;28;19913;-77
2022/12/10 09:51:23;;;;;;;;;;;;;;;-2.04;100.00;101067.59;5058376;28;19946;-77
2022/12/10 09:53:57;;;;;;;;;;;;;;;-1.95;100.00;101069.81;5056974;28;19955;-78
2022/12/10 09:56:25;;;;;;;;;;;;;;;-2.10;100.00;101073.84;5056613;28;20010;-76
2022/12/10 09:58:51;;;;;;;;;;;;;;;-2.12;100.00;101073.09;5056943;28;20011;-78
2022/12/10 10:01:19;;;;;;;;;;;;;;;-2.13;100.00;101074.00;5057480;28;20015;-77
2022/12/10 10:03:44;;;;;;;;;;;;;;;-2.07;100.00;101070.31;5055141;28;20455;-75
2022/12/10 10:06:11;;;;;;;;;;;;;;;-2.17;100.00;101059.50;5056530;28;20015;-79
2022/12/10 10:08:40;;;;;;;;;;;;;;;-2.27;100.00;101066.78;5057486;28;20234;-76
2022/12/10 10:11:10;;;;;;;;;;;;;;;-2.08;100.00;101069.47;5072429;28;19959;-74
2022/12/10 10:13:40;;;;;;;;;;;;;;;-2.09;100.00;101079.88;5058540;28;19920;-78
2022/12/10 10:16:24;;;;;;;;;;;;;;;-2.08;100.00;101087.56;5072270;28;19912;-76
2022/12/10 10:18:59;;;;;;;;;;;;;;;-2.05;100.00;101086.59;5058855;28;19909;-79
2022/12/10 10:21:45;;;;;;;;;;;;;;;-1.93;100.00;101093.03;5070884;28;20359;-78
2022/12/10 10:24:15;;;;;;;;;;;;;;;-1.93;100.00;101077.50;5054981;28;19913;-76
2022/12/10 10:26:40;;;;;;;;;;;;;;;-1.91;100.00;101075.69;5057347;28;20019;-76
2022/12/10 10:29:07;;;;;;;;;;;;;;;-1.97;100.00;101079.38;5057620;28;20011;-76
2022/12/10 10:31:33;;;;;;;;;;;;;;;-1.82;100.00;101083.06;5053041;28;19913;-74
2022/12/10 10:34:11;;;;;;;;;;;;;;;-1.68;100.00;101078.16;5052468;28;20066;-74
2022/12/10 10:36:38;;;;;;;;;;;;;;;-1.73;100.00;101077.50;5054538;28;19912;-76
2022/12/10 10:39:11;;;;;;;;;;;;;;;-1.72;100.00;101071.44;5055940;28;20342;-75
2022/12/10 10:41:39;;;;;;;;;;;;;;;-1.60;100.00;101076.97;5056975;28;19924;-75
2022/12/10 10:44:05;;;;;;;;;;;;;;;-1.64;100.00;101078.00;5056797;28;19935;-79
2022/12/10 10:46:35;;;;;;;;;;;;;;;-1.61;100.00;101070.09;5057621;28;20325;-74
2022/12/10 10:49:33;;;;;;;;;;;;;;;-1.76;100.00;101069.88;5058135;28;19919;-74
2022/12/10 10:52:19;;;;;;;;;;;;;;;-1.76;100.00;101069.88;4970966;28;20613;-79
2022/12/10 10:54:45;;;;;;;;;;;;;;;-1.70;100.00;101061.84;4987963;28;19940;-77
2022/12/10 10:57:16;;;;;;;;;;;;;;;-1.70;100.00;101059.25;4986022;28;19988;-76
2022/12/10 10:59:42;;;;;;;;;;;;;;;-1.58;100.00;101052.69;4987532;28;19914;-76
2022/12/10 11:02:16;;;;;;;;;;;;;;;-1.46;100.00;101056.50;4986896;28;20488;-81
2022/12/10 11:04:50;;;;;;;;;;;;;;;-1.70;100.00;101059.25;4970007;28;19913;-76
2022/12/10 11:07:20;;;;;;;;;;;;;;;-1.68;100.00;101054.88;4986976;28;20331;-77
2022/12/10 11:09:46;;;;;;;;;;;;;;;-1.46;100.00;101059.06;4987140;28;19914;-75
2022/12/10 11:12:28;;;;;;;;;;;;;;;-1.52;100.00;101060.19;4988010;28;19924;-78
2022/12/10 11:14:53;;;;;;;;;;;;;;;-1.46;100.00;101053.91;4988565;28;19925;-77
2022/12/10 11:17:21;;;;;;;;;;;;;;;-1.44;100.00;101052.09;4988722;28;20629;-74
2022/12/10 11:19:55;;;;;;;;;;;;;;;-1.39;100.00;101044.97;4983499;28;19921;-79
2022/12/10 11:22:25;;;;;;;;;;;;;;;-1.29;100.00;101059.16;4969627;28;19968;-77
2022/12/10 11:24:50;;;;;;;;;;;;;;;-1.12;100.00;101053.22;4986404;28;19918;-81
2022/12/10 11:27:24;;;;;;;;;;;;;;;-1.07;100.00;101047.84;5013593;28;19916;-78
2022/12/10 11:30:00;;;;;;;;;;;;;;;-1.10;100.00;101041.06;5057084;28;20011;-77
2022/12/10 11:32:25;;;;;;;;;;;;;;;-1.09;100.00;101031.53;5054742;28;19925;-79
2022/12/10 11:35:06;;;;;;;;;;;;;;;-1.12;100.00;101029.91;5063505;28;19981;-76
2022/12/10 11:37:38;;;;;;;;;;;;;;;-1.20;100.00;101031.19;5055154;28;19927;-75
2022/12/10 11:40:06;;;;;;;;;;;;;;;-1.28;100.00;101032.38;5056948;28;19923;-77
2022/12/10 11:42:35;;;;;;;;;;;;;;;-1.11;100.00;101030.75;5056884;28;20673;-75
2022/12/10 11:45:20;;;;;;;;;;;;;;;-0.98;100.00;101029.31;5064234;28;20490;-75
2022/12/10 11:47:53;;;;;;;;;;;;;;;-0.95;100.00;101028.31;5053246;28;20385;-80
2022/12/10 11:50:28;;;;;;;;;;;;;;;-1.07;100.00;101029.69;5055829;28;19919;-77
2022/12/10 11:52:56;;;;;;;;;;;;;;;-1.11;100.00;101026.44;5054290;28;20368;-77
2022/12/10 11:55:33;;;;;;;;;;;;;;;-1.18;100.00;101031.94;5054911;28;19923;-74
2022/12/10 11:58:04;;;;;;;;;;;;;;;-1.18;100.00;101035.38;5059950;28;20279;-75
2022/12/10 12:00:43;;;;;;;;;;;;;;;-1.09;100.00;101031.53;5064771;28;20425;-76
2022/12/10 12:03:08;;;;;;;;;;;;;;;-1.18;100.00;101025.00;5059380;28;19908;-77
2022/12/10 12:05:45;;;;;;;;;;;;;;;-1.22;100.00;101027.81;5065486;28;19912;-77
2022/12/10 12:08:17;;;;;;;;;;;;;;;-1.13;100.00;101025.66;5055425;28;19923;-76
2022/12/10 12:10:43;;;;;;;;;;;;;;;-1.16;100.00;101022.38;5071490;28;20506;-76
2022/12/10 12:13:08;;;;;;;;;;;;;;;-1.06;100.00;101026.22;5055534;28;19921;-75
2022/12/10 12:15:38;;;;;;;;;;;;;;;-1.15;100.00;101019.72;5062826;28;19916;-79
2022/12/10 12:18:15;;;;;;;;;;;;;;;-1.13;100.00;101017.03;5056309;28;20003;-77
2022/12/10 12:20:43;;;;;;;;;;;;;;;-1.01;100.00;101021.66;5056797;28;19913;-75
2022/12/10 12:23:19;;;;;;;;;;;;;;;-0.95;100.00;101018.78;5057289;28;19916;-78
2022/12/10 12:25:47;;;;;;;;;;;;;;;-1.18;100.00;101011.22;5057133;28;19923;-79
2022/12/10 12:28:12;;;;;;;;;;;;;;;-0.99;100.00;101006.88;5057364;28;19916;-79
2022/12/10 12:30:39;;;;;;;;;;;;;;;-1.00;100.00;101013.00;5056496;28;19967;-79
2022/12/10 12:33:11;;;;;;;;;;;;;;;-1.10;100.00;101017.75;5055655;28;19916;-79
2022/12/10 12:35:56;;;;;;;;;;;;;;;-1.06;100.00;101023.63;5054594;28;19917;-74
2022/12/10 12:38:25;;;;;;;;;;;;;;;-0.84;100.00;101029.47;5055175;28;19931;-81
2022/12/10 12:40:58;;;;;;;;;;;;;;;-0.80;100.00;101042.31;5056746;28;20014;-78